ADDS METAR Data INFO
IDs: Format: Raw Decoded Include TAF

Data at: 2338 UTC 15 Dec 2017

KAQO 152315Z AUTO 00000KT 10SM CLR 13/M03 A3026 RMK AO2
KAQO 152255Z AUTO 00000KT 10SM CLR 14/M04 A3027 RMK AO2
KAQO 152235Z AUTO 00000KT 10SM CLR 14/M04 A3026 RMK AO2
KAQO 152215Z AUTO 00000KT 10SM CLR 15/M05 A3026 RMK AO2
KAQO 152155Z AUTO 32005KT 10SM CLR 15/M04 A3027 RMK AO2
KAQO 152135Z AUTO 02004KT 10SM CLR 15/M05 A3026 RMK AO2
KAQO 152115Z AUTO 35007KT 10SM CLR 15/M04 A3026 RMK AO2
KAQO 152055Z AUTO 34008KT 10SM CLR 15/M04 A3027 RMK AO2
KAQO 152035Z AUTO 34005KT 10SM CLR 14/M04 A3027 RMK AO2
KAQO 152015Z AUTO 34007KT 10SM CLR 14/M04 A3027 RMK AO2
KAQO 151955Z AUTO 36004KT 10SM CLR 14/M03 A3028 RMK AO2
KAQO 151935Z AUTO 02008KT 10SM CLR 14/M03 A3029 RMK AO2
KAQO 151915Z AUTO 33007KT 10SM CLR 14/M03 A3031 RMK AO2
KAQO 151855Z AUTO 35011G15KT 10SM CLR 14/M03 A3032 RMK AO2
KAQO 151835Z AUTO 01008KT 10SM CLR 14/M03 A3033 RMK AO2
KAQO 151815Z AUTO 36008KT 10SM CLR 13/M03 A3035 RMK AO2
KAQO 151755Z AUTO 33009KT 10SM CLR 13/M03 A3036 RMK AO2
KAQO 151735Z AUTO 03008KT 10SM CLR 13/M03 A3038 RMK AO2
KAQO 151715Z AUTO 02007KT 10SM CLR 12/M02 A3039 RMK AO2
KAQO 151655Z AUTO 01005KT 10SM CLR 11/M01 A3039 RMK AO2
KAQO 151635Z AUTO 01005KT 10SM CLR 11/M01 A3039 RMK AO2
KAQO 151615Z AUTO 36007KT 10SM CLR 09/M01 A3039 RMK AO2
KAQO 151555Z AUTO 36005KT 10SM CLR 08/M01 A3038 RMK AO2
KAQO 151535Z AUTO 35007KT 10SM CLR 07/M01 A3036 RMK AO2
KAQO 151515Z AUTO 34008KT 10SM CLR 07/M01 A3037 RMK AO2
KAQO 151455Z AUTO 34006KT 10SM CLR 06/M01 A3037 RMK AO2
KAQO 151435Z AUTO 32007KT 10SM CLR 06/00 A3036 RMK AO2
KAQO 151415Z AUTO 31006KT 10SM CLR 04/00 A3036 RMK AO2
KAQO 151355Z AUTO 00000KT 10SM CLR 03/M01 A3035 RMK AO2
KAQO 151335Z AUTO 26004KT 10SM CLR 03/00 A3035 RMK AO2
KAQO 151315Z AUTO 24003KT 10SM CLR 04/M01 A3034 RMK AO2
KAQO 151255Z AUTO 27003KT 10SM CLR 04/M01 A3033 RMK AO2
KAQO 151235Z AUTO 30004KT 10SM CLR 03/00 A3033 RMK AO2
KAQO 151215Z AUTO 29003KT 10SM CLR 04/M01 A3033 RMK AO2
KAQO 151155Z AUTO 00000KT 10SM CLR 04/M01 A3032 RMK AO2
KAQO 151135Z AUTO 00000KT 10SM CLR 03/M01 A3032 RMK AO2
KAQO 151115Z AUTO 29003KT 10SM CLR 05/M01 A3032 RMK AO2
KAQO 151055Z AUTO 30005KT 10SM CLR 05/M01 A3032 RMK AO2
KAQO 151035Z AUTO 00000KT 10SM CLR 06/00 A3032 RMK AO2
KAQO 151015Z AUTO 00000KT 10SM CLR 06/00 A3031 RMK AO2
KAQO 150955Z AUTO 00000KT 10SM CLR 07/M01 A3031 RMK AO2
KAQO 150935Z AUTO 00000KT 10SM CLR 07/M01 A3031 RMK AO2
KAQO 150915Z AUTO 31003KT 10SM CLR 07/M01 A3031 RMK AO2
KAQO 150855Z AUTO 31003KT 10SM CLR 08/M01 A3030 RMK AO2
KAQO 150835Z AUTO 00000KT 10SM CLR 07/00 A3029 RMK AO2
KAQO 150815Z AUTO 00000KT 10SM CLR 08/M01 A3028 RMK AO2
KAQO 150755Z AUTO 00000KT 10SM CLR 08/M01 A3028 RMK AO2
KAQO 150735Z AUTO 00000KT 10SM CLR 09/M01 A3028 RMK AO2
KAQO 150715Z AUTO 02003KT 10SM FEW120 09/M01 A3028 RMK AO2
KAQO 150655Z AUTO 02003KT 10SM FEW120 09/M01 A3027 RMK AO2
KAQO 150635Z AUTO 02006KT 10SM FEW110 09/M01 A3027 RMK AO2
KAQO 150615Z AUTO 02004KT 10SM OVC110 09/M01 A3027 RMK AO2
KAQO 150555Z AUTO 36004KT 10SM BKN110 09/M01 A3026 RMK AO2
KAQO 150535Z AUTO 36005KT 10SM CLR 09/M01 A3026 RMK AO2
KAQO 150515Z AUTO 36006KT 10SM CLR 09/M01 A3024 RMK AO2
KAQO 150455Z AUTO 01007KT 10SM CLR 10/M02 A3025 RMK AO2
KAQO 150435Z AUTO 02007G14KT 10SM CLR 10/M02 A3023 RMK AO2
KAQO 150415Z AUTO 01006KT 10SM CLR 11/M02 A3023 RMK AO2
KAQO 150355Z AUTO 01007KT 10SM CLR 11/M02 A3022 RMK AO2
KAQO 150335Z AUTO 01005KT 10SM CLR 11/M02 A3021 RMK AO2
KAQO 150315Z AUTO 01006KT 10SM CLR 11/M02 A3020 RMK AO2
KAQO 150255Z AUTO 02005KT 10SM CLR 12/M02 A3019 RMK AO2
KAQO 150235Z AUTO 01006KT 10SM CLR 12/M01 A3018 RMK AO2
KAQO 150210Z AUTO 01004KT 10SM CLR 12/M01 A3017 RMK AO2
KAQO 150155Z AUTO 01006KT 10SM CLR 13/M01 A3016 RMK AO2
KAQO 150135Z AUTO 02004KT 10SM CLR 12/M01 A3015 RMK AO2
KAQO 150115Z AUTO 02005KT 10SM CLR 13/M01 A3014 RMK AO2
KAQO 150055Z AUTO 02005KT 10SM CLR 13/M01 A3012 RMK AO2
KAQO 150035Z AUTO 02004KT 10SM CLR 13/M01 A3011 RMK AO2
KAQO 150015Z AUTO 02003KT 10SM CLR 13/M01 A3011 RMK AO2
KAQO 142355Z AUTO 02003KT 10SM CLR 14/M01 A3011 RMK AO2
KAQO 142335Z AUTO 00000KT 10SM CLR 15/M01 A3009 RMK AO2
KAQO 142315Z AUTO 04004KT 10SM CLR 16/M01 A3008 RMK AO2
KAQO 142255Z AUTO 03006KT 10SM CLR 16/M01 A3006 RMK AO2
KAQO 142235Z AUTO 02007KT 10SM CLR 17/M02 A3006 RMK AO2
KAQO 142215Z AUTO 01007KT 10SM CLR 17/M02 A3005 RMK AO2
KAQO 142155Z AUTO 01010KT 10SM CLR 17/M02 A3005 RMK AO2
KAQO 142135Z AUTO 04009KT 10SM CLR 18/M02 A3005 RMK AO2
KAQO 142115Z AUTO 03009KT 10SM CLR 18/M02 A3004 RMK AO2
KAQO 142055Z AUTO 03008KT 10SM CLR 18/M02 A3003 RMK AO2
KAQO 142035Z AUTO 05010G16KT 10SM CLR 18/M02 A3003 RMK AO2
KAQO 142015Z AUTO 04011KT 10SM FEW090 18/M02 A3003 RMK AO2
KAQO 141955Z AUTO 04011KT 10SM FEW090 18/M02 A3002 RMK AO2
KAQO 141935Z AUTO 04012KT 10SM FEW095 18/M02 A3002 RMK AO2
KAQO 141915Z AUTO 04008G15KT 10SM FEW095 18/M02 A3003 RMK AO2
KAQO 141855Z AUTO 06010G15KT 10SM CLR 18/M02 A3003 RMK AO2
KAQO 141835Z AUTO 05013G17KT 10SM CLR 18/M02 A3003 RMK AO2
KAQO 141815Z AUTO 05009G15KT 10SM CLR 18/M01 A3004 RMK AO2
KAQO 141755Z AUTO 04010G15KT 10SM CLR 17/M01 A3005 RMK AO2
KAQO 141735Z AUTO 04009KT 10SM CLR 17/M01 A3006 RMK AO2
KAQO 141715Z AUTO 03008KT 10SM FEW095 16/M01 A3006 RMK AO2
KAQO 141655Z AUTO 02004KT 10SM CLR 14/M01 A3008 RMK AO2
KAQO 141635Z AUTO 04006KT 10SM CLR 13/00 A3007 RMK AO2
KAQO 141615Z AUTO 00000KT 10SM CLR 11/02 A3007 RMK AO2
KAQO 141555Z AUTO 00000KT 10SM CLR 10/02 A3007 RMK AO2
KAQO 141535Z AUTO 00000KT 10SM CLR 09/02 A3006 RMK AO2
KAQO 141515Z AUTO 00000KT 10SM CLR 07/03 A3005 RMK AO2
KAQO 141455Z AUTO 00000KT 10SM CLR 05/02 A3004 RMK AO2
KAQO 141435Z AUTO 00000KT 10SM CLR 06/03 A3004 RMK AO2
KAQO 141415Z AUTO 00000KT 10SM CLR 04/02 A3003 RMK AO2
KAQO 141355Z AUTO 00000KT 10SM CLR 03/01 A3001 RMK AO2
KAQO 141335Z AUTO 00000KT 10SM CLR 03/01 A3001 RMK AO2
KAQO 141315Z AUTO 00000KT 10SM CLR 03/01 A3000 RMK AO2
KAQO 141255Z AUTO 00000KT 10SM CLR 04/02 A3000 RMK AO2
KAQO 141235Z AUTO 00000KT 10SM CLR 04/02 A2999 RMK AO2
KAQO 141215Z AUTO 00000KT 10SM CLR 04/01 A2998 RMK AO2
KAQO 141155Z AUTO 00000KT 10SM CLR 04/02 A2997 RMK AO2